Terminal Aerodrome Forecast
Issued by NWS

Home | Current Version | Previous Version | Text Only | Print | Product List | Glossary On
Versions: 1 2 3 4 5 6 7 8 9 10 11 12 13 14 15 16 17 18 19 20 21 22 23 24 25 26 27 28 29 30 31
000
FTUS41 KOKX 191245 AAA
TAFSWF
TAF AMD
KSWF 191245Z 1913/2018 28006KT P6SM FEW025 BKN040
     FM191500 31008KT P6SM SCT040
     FM200200 VRB03KT P6SM FEW008 FEW020
     FM201000 VRB03KT 5SM BR SCT008 BKN020
     FM201600 VRB04KT P6SM SCT008 OVC020
      AMD NOT SKED=

USA.gov is the U.S. government's official web portal to all federal, state and local government web resources and services.